Pagrindinis puslapis
METAR-TAF:

METAR-TAF

Oro uostai :

Harisburgas, Pensilvanija, Jungtinės Amerikos Valstijos

platuma: 40-13-02N, ilguma: 076-51-05W, Aukštis: 106 m

Dabartinis oras

Ataskaita buvo paskelbta 32 minutes, ne 06:56 UTC
Vėjas 6 kt iš Vakarų
Temperatūra -2°C
Drėgmė 46%
Slėgis 1013 hPa
Matomumas: 16.1 km
Giedras dangus

METAR: KCXY 280656Z AUTO 27006KT 10SM CLR M02/M12 A2990 RMK AO2 SLP129 T10171117

Laikas: 02:28 (07:28 UTC)


TAF: trūkstamas

Orai ataskaitas ir orų prognozės (METAR, TAF).

turimą stotys yra geltonos ir raudonos taškus žemėlapyje.

Perkelti pele per norėdami pamatyti stoties vardą.

Tada spustelėkite, norėdami matyti oro stebėjimo ir prognozės.

Norėdami pakeisti žemėlapį: spustelėkite ant žalios mygtukų su juodo kryžiaus žemyn,; žalią mygtuką su brūkšneliu, jei norite nutolinti; arba žalių rodyklių gretimoms žemėlapius.


METAR-TAF: